Time;durP1;ratioP1;P1;durP2;ratioP2;P2;SDS_P1;SDS_P2;PMS_P1;PMS_P2;Temp;Humidity;BMP_temperature;BMP_pressure;BME280_temperature;BME280_humidity;BME280_pressure;Samples;Min_cycle;Max_cycle;Signal;HPM_P1;HPM_P2
2021/12/27 00:00:20;;;;;;;6.45;4.00;;;11.30;99.90;;;;;;5067433;28;20025;-60
2021/12/27 00:02:49;;;;;;;9.85;3.97;;;11.30;99.90;;;;;;5067127;28;20116;-60
2021/12/27 00:05:15;;;;;;;7.38;3.65;;;11.30;99.90;;;;;;5068986;28;20090;-61
2021/12/27 00:07:43;;;;;;;8.95;4.15;;;11.40;99.90;;;;;;5069675;28;20428;-60
2021/12/27 00:10:10;;;;;;;8.10;3.80;;;11.40;99.90;;;;;;5070338;28;20043;-60
2021/12/27 00:12:36;;;;;;;10.75;3.80;;;11.40;99.90;;;;;;5068860;28;20024;-60
2021/12/27 00:15:03;;;;;;;16.65;12.30;;;11.40;99.90;;;;;;5067289;28;20406;-60
2021/12/27 00:17:28;;;;;;;11.43;4.13;;;11.40;99.90;;;;;;5067252;28;20032;-61
2021/12/27 00:19:56;;;;;;;9.63;3.75;;;11.40;99.90;;;;;;5051870;28;20029;-61
2021/12/27 00:22:22;;;;;;;9.50;3.80;;;11.40;99.90;;;;;;5067383;28;20077;-60
2021/12/27 00:24:48;;;;;;;9.13;3.67;;;11.40;99.90;;;;;;5068009;28;20036;-59
2021/12/27 00:27:15;;;;;;;7.88;3.40;;;11.50;99.90;;;;;;5068849;28;20023;-60
2021/12/27 00:29:41;;;;;;;7.32;3.78;;;11.50;99.90;;;;;;5069012;28;20158;-60
2021/12/27 00:32:07;;;;;;;9.13;3.83;;;11.50;99.90;;;;;;5067102;28;20038;-60
2021/12/27 00:34:36;;;;;;;7.43;3.33;;;11.50;99.90;;;;;;5070027;28;20422;-61
2021/12/27 00:37:06;;;;;;;7.82;3.72;;;11.50;99.90;;;;;;5069491;28;20025;-59
2021/12/27 00:39:32;;;;;;;5.75;3.28;;;11.50;99.90;;;;;;5067349;28;20074;-60
2021/12/27 00:41:58;;;;;;;9.23;3.95;;;11.50;99.90;;;;;;5067330;28;20021;-60
2021/12/27 00:44:23;;;;;;;7.20;2.90;;;11.50;99.90;;;;;;5067252;28;20446;-60
2021/12/27 00:46:49;;;;;;;5.55;3.28;;;11.50;99.90;;;;;;5068128;28;20039;-60
2021/12/27 00:49:15;;;;;;;7.32;3.58;;;11.50;99.90;;;;;;5070329;28;20422;-60
2021/12/27 00:51:40;;;;;;;7.78;3.50;;;11.50;99.90;;;;;;5067519;28;20111;-60
2021/12/27 00:54:06;;;;;;;7.68;3.67;;;11.50;99.90;;;;;;5067210;28;20032;-60
2021/12/27 00:56:32;;;;;;;6.18;3.50;;;11.50;99.90;;;;;;5067754;28;20030;-60
2021/12/27 00:58:58;;;;;;;8.80;3.53;;;11.50;99.90;;;;;;5066850;28;20031;-61
2021/12/27 01:01:23;;;;;;;6.38;3.25;;;11.60;99.90;;;;;;5070327;28;20111;-60
2021/12/27 01:03:49;;;;;;;7.40;3.92;;;11.50;99.90;;;;;;5068437;28;20037;-60
2021/12/27 01:06:15;;;;;;;7.82;3.75;;;11.60;99.90;;;;;;5068647;28;20036;-61
2021/12/27 01:08:40;;;;;;;7.63;3.65;;;11.60;99.90;;;;;;5067323;28;20033;-60
2021/12/27 01:13:45;;;;;;;6.55;3.55;;;11.60;99.90;;;;;;5069654;28;20024;-60
2021/12/27 01:16:14;;;;;;;7.30;3.80;;;11.60;99.90;;;;;;5069375;28;20039;-60
2021/12/27 01:18:44;;;;;;;6.88;3.97;;;11.60;99.90;;;;;;5066984;28;20028;-60
2021/12/27 01:21:11;;;;;;;6.95;4.00;;;11.60;99.90;;;;;;5067351;28;20153;-60
2021/12/27 01:23:36;;;;;;;8.45;4.45;;;11.40;99.90;;;;;;5067664;28;20402;-60
2021/12/27 01:26:03;;;;;;;8.85;4.38;;;11.40;99.90;;;;;;5070416;28;20029;-61
2021/12/27 01:28:28;;;;;;;8.75;4.30;;;11.40;99.90;;;;;;5074204;28;20111;-61
2021/12/27 01:30:54;;;;;;;9.60;4.80;;;11.30;99.90;;;;;;5071802;28;20702;-61
2021/12/27 01:33:21;;;;;;;7.05;4.07;;;11.30;99.90;;;;;;5070431;28;20430;-60
2021/12/27 01:35:48;;;;;;;10.13;4.75;;;11.40;99.90;;;;;;5070370;28;20036;-61
2021/12/27 01:38:15;;;;;;;8.63;4.80;;;11.30;99.90;;;;;;5070700;28;20414;-61
2021/12/27 01:40:44;;;;;;;8.70;4.50;;;11.30;99.90;;;;;;5072053;28;20023;-60
2021/12/27 01:43:14;;;;;;;8.40;4.90;;;11.30;99.90;;;;;;5072584;28;20093;-61
2021/12/27 01:46:09;;;;;;;10.25;4.60;;;11.30;99.90;;;;;;5071434;28;20448;-61
2021/12/27 01:48:39;;;;;;;8.75;4.90;;;11.30;99.90;;;;;;5071780;28;20437;-61
2021/12/27 01:51:08;;;;;;;8.02;4.70;;;11.30;99.90;;;;;;5070209;28;20051;-61
2021/12/27 01:53:36;;;;;;;9.30;4.70;;;11.40;99.90;;;;;;5070754;28;20040;-61
2021/12/27 01:56:04;;;;;;;8.75;5.90;;;11.30;99.90;;;;;;5070293;28;20198;-60
2021/12/27 01:58:31;;;;;;;7.30;5.10;;;11.30;99.90;;;;;;5072904;28;20491;-61
2021/12/27 02:00:59;;;;;;;8.65;4.93;;;11.30;99.90;;;;;;5071454;28;20034;-61
2021/12/27 02:03:28;;;;;;;8.40;4.50;;;11.30;99.90;;;;;;5070352;28;20525;-61
2021/12/27 02:05:54;;;;;;;10.75;4.82;;;11.30;99.90;;;;;;5069829;28;20047;-60
2021/12/27 02:08:20;;;;;;;10.40;5.30;;;11.20;99.90;;;;;;5070300;28;20034;-60
2021/12/27 02:10:46;;;;;;;10.35;5.30;;;11.30;99.90;;;;;;5071704;28;20013;-61
2021/12/27 02:13:12;;;;;;;7.65;4.80;;;11.30;99.90;;;;;;5072342;28;20043;-61
2021/12/27 02:15:38;;;;;;;7.22;4.40;;;11.30;99.90;;;;;;5069030;28;20496;-59
2021/12/27 02:18:05;;;;;;;10.10;5.20;;;11.40;99.90;;;;;;5069789;28;20048;-60
2021/12/27 02:20:35;;;;;;;9.60;4.90;;;11.30;99.90;;;;;;5071223;28;20036;-61
2021/12/27 02:23:04;;;;;;;11.30;4.47;;;11.40;99.90;;;;;;5071163;28;20032;-60
2021/12/27 02:25:31;;;;;;;6.68;4.82;;;11.40;99.90;;;;;;5071400;28;20386;-61
2021/12/27 02:28:00;;;;;;;6.57;4.28;;;11.40;99.90;;;;;;5071930;28;20105;-61
2021/12/27 02:30:26;;;;;;;7.70;4.68;;;11.40;99.90;;;;;;5069569;28;20058;-61
2021/12/27 02:32:55;;;;;;;8.60;4.65;;;11.40;99.90;;;;;;5069641;28;20414;-61
2021/12/27 02:35:28;;;;;;;7.30;4.78;;;11.50;99.90;;;;;;5069110;28;20029;-61
2021/12/27 02:37:57;;;;;;;12.40;4.45;;;11.40;99.90;;;;;;5052311;28;20515;-60
2021/12/27 02:40:25;;;;;;;8.90;4.97;;;11.40;99.90;;;;;;5069192;28;20048;-59
2021/12/27 02:42:53;;;;;;;7.07;4.35;;;11.40;99.90;;;;;;5068843;28;20136;-61
2021/12/27 02:45:19;;;;;;;9.02;4.80;;;11.50;99.90;;;;;;5069351;28;20103;-60
2021/12/27 02:47:45;;;;;;;7.38;4.75;;;11.50;99.90;;;;;;5069616;28;20032;-60
2021/12/27 02:50:11;;;;;;;9.15;4.88;;;11.40;99.90;;;;;;5069320;28;20039;-61
2021/12/27 02:52:36;;;;;;;9.68;5.30;;;11.40;99.90;;;;;;5071681;28;20028;-60
2021/12/27 02:55:03;;;;;;;9.60;5.35;;;11.40;99.90;;;;;;5070967;28;20494;-60
2021/12/27 02:57:28;;;;;;;10.82;5.40;;;11.40;99.90;;;;;;5068730;28;20019;-61
2021/12/27 02:59:57;;;;;;;9.20;4.25;;;11.30;99.90;;;;;;5070441;28;20041;-60
2021/12/27 03:02:25;;;;;;;8.02;5.03;;;11.50;99.90;;;;;;5068887;28;20025;-61
2021/12/27 03:04:51;;;;;;;8.75;4.88;;;11.50;99.90;;;;;;5069481;28;20495;-59
2021/12/27 03:07:16;;;;;;;9.50;4.55;;;11.70;99.90;;;;;;5072247;28;20021;-60
2021/12/27 03:09:42;;;;;;;8.65;4.53;;;11.70;99.90;;;;;;5068593;28;20033;-60
2021/12/27 03:12:11;;;;;;;8.55;4.93;;;11.60;99.90;;;;;;5068882;28;20028;-61
2021/12/27 03:14:37;;;;;;;7.70;4.70;;;11.60;99.90;;;;;;5068533;28;20028;-60
2021/12/27 03:17:03;;;;;;;8.20;4.32;;;11.70;99.90;;;;;;5069071;28;20025;-61
2021/12/27 03:19:29;;;;;;;7.40;4.50;;;11.60;99.90;;;;;;5071962;28;20028;-60
2021/12/27 03:21:54;;;;;;;8.38;4.68;;;11.70;99.90;;;;;;5069132;28;20032;-60
2021/12/27 03:24:22;;;;;;;5.22;3.95;;;11.80;99.90;;;;;;5070092;28;20398;-61
2021/12/27 03:26:49;;;;;;;6.43;4.20;;;11.90;99.90;;;;;;5068136;28;20374;-60
2021/12/27 03:29:15;;;;;;;4.93;3.85;;;11.90;99.90;;;;;;5068861;28;20036;-60
2021/12/27 03:31:41;;;;;;;6.72;4.38;;;11.80;99.90;;;;;;5071021;28;20027;-61
2021/12/27 03:34:07;;;;;;;7.07;4.20;;;11.80;99.90;;;;;;5069891;28;20044;-60
2021/12/27 03:36:38;;;;;;;6.70;4.10;;;11.90;99.90;;;;;;5068078;28;20025;-59
2021/12/27 03:39:07;;;;;;;8.30;4.95;;;11.90;99.90;;;;;;5070097;28;20021;-60
2021/12/27 03:41:33;;;;;;;6.45;4.38;;;11.90;99.90;;;;;;5069610;28;20023;-59
2021/12/27 03:43:59;;;;;;;5.72;3.78;;;11.90;99.90;;;;;;5068007;28;20032;-61
2021/12/27 03:46:25;;;;;;;4.57;3.88;;;11.90;99.90;;;;;;5071866;28;20398;-60
2021/12/27 03:48:51;;;;;;;8.45;4.32;;;11.90;99.90;;;;;;5068473;28;20078;-61
2021/12/27 03:51:16;;;;;;;5.93;3.72;;;12.00;99.90;;;;;;5067814;28;20059;-61
2021/12/27 03:53:42;;;;;;;6.03;4.00;;;12.10;99.90;;;;;;5068168;28;20024;-60
2021/12/27 03:56:08;;;;;;;4.85;3.45;;;12.00;99.90;;;;;;5068253;28;20127;-59
2021/12/27 03:58:47;;;;;;;3.65;3.10;;;12.00;99.90;;;;;;5070645;28;20078;-61
2021/12/27 04:01:16;;;;;;;5.03;3.78;;;12.10;99.90;;;;;;5070704;28;20036;-60
2021/12/27 04:03:47;;;;;;;4.20;3.80;;;12.10;99.90;;;;;;5069266;28;20073;-59
2021/12/27 04:06:15;;;;;;;5.38;3.65;;;12.10;99.90;;;;;;5068091;28;20108;-60
2021/12/27 04:08:41;;;;;;;6.40;3.45;;;12.10;99.90;;;;;;5067595;28;20139;-60
2021/12/27 04:11:07;;;;;;;7.38;3.80;;;12.00;99.90;;;;;;5067830;28;20028;-60
2021/12/27 04:13:33;;;;;;;6.32;3.55;;;12.10;99.90;;;;;;5070705;28;20024;-60
2021/12/27 04:15:59;;;;;;;6.82;3.75;;;12.10;99.90;;;;;;5069464;28;20028;-60
2021/12/27 04:18:25;;;;;;;7.53;4.18;;;12.00;99.90;;;;;;5069231;28;20055;-59
2021/12/27 04:20:52;;;;;;;7.55;4.22;;;12.00;99.90;;;;;;5067546;28;20032;-60
2021/12/27 04:23:18;;;;;;;6.80;3.70;;;12.00;99.90;;;;;;5067058;28;20029;-60
2021/12/27 04:25:44;;;;;;;7.60;3.97;;;12.00;99.90;;;;;;5069796;28;20375;-60
2021/12/27 04:28:10;;;;;;;6.90;3.42;;;12.00;99.90;;;;;;5068945;28;20029;-59
2021/12/27 04:30:36;;;;;;;4.68;3.10;;;12.20;99.90;;;;;;5067333;28;20035;-60
2021/12/27 04:33:03;;;;;;;4.93;3.00;;;12.20;99.90;;;;;;5067378;28;20127;-61
2021/12/27 04:35:29;;;;;;;4.57;2.80;;;12.20;99.90;;;;;;5066649;28;20028;-61
2021/12/27 04:37:55;;;;;;;4.63;2.28;;;12.20;99.90;;;;;;5066674;28;20024;-60
2021/12/27 04:40:22;;;;;;;5.10;2.40;;;12.40;99.90;;;;;;5071289;28;20422;-61
2021/12/27 04:42:53;;;;;;;4.80;2.17;;;12.40;99.90;;;;;;5068835;28;20025;-60
2021/12/27 04:45:19;;;;;;;5.00;1.90;;;12.50;99.90;;;;;;5067434;28;20111;-60
2021/12/27 04:47:45;;;;;;;4.82;1.88;;;12.50;99.90;;;;;;5067461;28;20105;-60
2021/12/27 04:50:12;;;;;;;9.38;2.13;;;12.50;99.90;;;;;;5067717;28;20029;-60
2021/12/27 04:52:38;;;;;;;5.72;1.90;;;12.60;99.90;;;;;;5068197;28;20020;-59
2021/12/27 04:55:05;;;;;;;4.25;1.80;;;12.60;99.90;;;;;;5068655;28;20028;-60
2021/12/27 04:57:30;;;;;;;6.97;2.03;;;12.60;99.90;;;;;;5068387;28;20028;-61
2021/12/27 04:59:56;;;;;;;4.45;2.10;;;12.60;99.90;;;;;;5072991;28;20037;-60
2021/12/27 05:02:22;;;;;;;5.18;1.90;;;12.70;99.90;;;;;;5071110;28;20044;-60
2021/12/27 05:04:47;;;;;;;7.22;1.80;;;12.70;99.90;;;;;;5072753;28;20513;-60
2021/12/27 05:07:13;;;;;;;10.15;2.08;;;12.80;99.90;;;;;;5073585;28;20047;-60
2021/12/27 05:09:39;;;;;;;6.80;1.80;;;12.80;99.90;;;;;;5071579;28;20474;-60
2021/12/27 05:12:06;;;;;;;9.20;1.98;;;12.90;99.90;;;;;;5071164;28;20024;-60
2021/12/27 05:14:31;;;;;;;11.20;2.53;;;12.90;99.90;;;;;;5070978;28;20032;-60
2021/12/27 05:16:58;;;;;;;9.88;2.10;;;12.90;99.90;;;;;;5071520;28;20032;-60
2021/12/27 05:19:23;;;;;;;12.25;2.00;;;12.90;99.90;;;;;;5074831;28;20107;-60
2021/12/27 05:21:49;;;;;;;11.48;2.35;;;13.00;99.90;;;;;;5071951;28;20123;-60
2021/12/27 05:24:15;;;;;;;15.57;2.47;;;13.00;99.90;;;;;;5070605;28;20089;-61
2021/12/27 05:26:41;;;;;;;12.90;2.20;;;13.10;99.90;;;;;;5070830;28;20024;-60
2021/12/27 05:29:07;;;;;;;14.48;2.35;;;13.20;99.90;;;;;;5070849;28;20079;-61
2021/12/27 05:31:33;;;;;;;17.63;2.60;;;13.30;99.90;;;;;;5072692;28;20024;-61
2021/12/27 05:33:58;;;;;;;14.70;2.65;;;13.30;99.90;;;;;;5071784;28;20044;-60
2021/12/27 05:36:24;;;;;;;14.05;2.55;;;13.30;99.90;;;;;;5072016;28;20109;-60
2021/12/27 05:38:50;;;;;;;12.90;2.00;;;13.40;99.90;;;;;;5070599;28;20491;-60
2021/12/27 05:41:16;;;;;;;13.00;2.40;;;13.40;99.90;;;;;;5070494;28;20029;-61
2021/12/27 05:43:42;;;;;;;13.95;2.10;;;13.40;99.90;;;;;;5072777;28;20453;-61
2021/12/27 05:46:08;;;;;;;17.60;2.53;;;13.40;99.90;;;;;;5072276;28;20123;-60
2021/12/27 05:48:33;;;;;;;17.70;2.58;;;13.40;99.90;;;;;;5070362;28;20063;-61
2021/12/27 05:50:59;;;;;;;18.50;2.75;;;13.40;99.90;;;;;;5069904;28;20035;-60
2021/12/27 05:53:25;;;;;;;18.40;3.80;;;13.40;99.90;;;;;;5070758;28;20048;-60
2021/12/27 05:55:51;;;;;;;21.80;3.50;;;13.40;99.90;;;;;;5071576;28;20035;-60
2021/12/27 05:58:17;;;;;;;22.65;3.83;;;13.50;99.90;;;;;;5073386;28;20548;-61
2021/12/27 06:00:43;;;;;;;25.05;3.63;;;13.50;99.90;;;;;;5071721;28;20433;-61
2021/12/27 06:03:09;;;;;;;25.48;3.47;;;13.50;99.90;;;;;;5069874;28;20027;-60
2021/12/27 06:05:34;;;;;;;27.10;3.70;;;13.60;99.90;;;;;;5069737;28;20409;-61
2021/12/27 06:08:01;;;;;;;25.52;3.53;;;13.50;99.90;;;;;;5070238;28;20474;-60
2021/12/27 06:10:27;;;;;;;24.98;4.05;;;13.50;99.90;;;;;;5073166;28;20025;-60
2021/12/27 06:12:52;;;;;;;27.33;4.18;;;13.60;99.90;;;;;;5070158;28;20070;-61
2021/12/27 06:15:18;;;;;;;32.63;4.43;;;13.60;99.90;;;;;;5071337;28;20390;-60
2021/12/27 06:17:44;;;;;;;34.53;5.32;;;13.60;99.90;;;;;;5069782;28;20513;-60
2021/12/27 06:20:13;;;;;;;40.10;5.97;;;13.60;99.90;;;;;;5069590;28;20040;-61
2021/12/27 06:22:43;;;;;;;39.30;6.43;;;13.60;99.90;;;;;;5072285;28;20499;-60
2021/12/27 06:25:09;;;;;;;42.63;6.53;;;13.60;99.90;;;;;;5071970;28;20039;-61
2021/12/27 06:27:35;;;;;;;39.22;5.82;;;13.60;99.90;;;;;;5070042;28;20418;-61
2021/12/27 06:30:03;;;;;;;41.17;6.32;;;13.70;99.90;;;;;;5069810;28;20020;-61
2021/12/27 06:32:28;;;;;;;35.95;6.13;;;13.70;99.90;;;;;;5069212;28;20028;-61
2021/12/27 06:34:54;;;;;;;36.72;6.25;;;13.70;99.90;;;;;;5070077;28;20047;-61
2021/12/27 06:37:20;;;;;;;35.10;6.45;;;13.70;99.90;;;;;;5073423;28;20025;-61
2021/12/27 06:39:46;;;;;;;45.85;6.85;;;13.80;99.90;;;;;;5070826;28;20036;-60
2021/12/27 06:42:12;;;;;;;35.35;5.57;;;13.70;99.90;;;;;;5069497;28;20103;-61
2021/12/27 06:44:37;;;;;;;40.10;6.38;;;13.70;99.90;;;;;;5069064;28;20064;-60
2021/12/27 06:47:03;;;;;;;40.60;7.35;;;13.70;99.90;;;;;;5069785;28;20025;-60
2021/12/27 06:49:31;;;;;;;40.28;6.57;;;13.70;99.90;;;;;;5072257;28;20036;-60
2021/12/27 06:51:58;;;;;;;47.83;7.70;;;13.80;99.90;;;;;;5069834;28;20017;-59
2021/12/27 06:54:24;;;;;;;53.00;7.90;;;13.80;99.90;;;;;;5069271;28;20062;-60
2021/12/27 06:56:51;;;;;;;58.42;8.27;;;13.70;99.90;;;;;;5069193;28;20036;-61
2021/12/27 06:59:17;;;;;;;53.03;8.68;;;13.80;99.90;;;;;;5068794;28;20056;-61
2021/12/27 07:01:43;;;;;;;65.03;10.55;;;13.80;99.90;;;;;;5071709;28;20376;-61
2021/12/27 07:04:08;;;;;;;60.42;10.23;;;13.80;99.90;;;;;;5070353;28;20039;-60
2021/12/27 07:06:34;;;;;;;67.75;10.85;;;13.80;99.90;;;;;;5068730;28;20024;-61
2021/12/27 07:09:00;;;;;;;65.32;10.55;;;13.80;99.90;;;;;;5069181;28;20025;-61
2021/12/27 07:11:26;;;;;;;66.43;11.82;;;13.80;99.90;;;;;;5068791;28;20398;-61
2021/12/27 07:13:51;;;;;;;75.43;13.18;;;13.80;99.90;;;;;;5070081;28;20048;-60
2021/12/27 07:16:17;;;;;;;73.90;12.13;;;13.80;99.90;;;;;;5072829;28;20360;-60
2021/12/27 07:18:43;;;;;;;79.63;12.23;;;13.70;99.90;;;;;;5069110;28;20111;-59
2021/12/27 07:21:08;;;;;;;75.53;12.50;;;13.70;99.90;;;;;;5067888;28;20028;-59
2021/12/27 07:23:34;;;;;;;87.00;15.18;;;13.80;99.90;;;;;;5069674;28;20035;-60
2021/12/27 07:26:01;;;;;;;75.22;14.43;;;13.80;99.90;;;;;;5068333;28;20060;-61
2021/12/27 07:28:26;;;;;;;81.18;13.50;;;13.80;99.90;;;;;;5072494;28;20056;-61
2021/12/27 07:30:52;;;;;;;81.03;13.23;;;13.80;99.90;;;;;;5068245;28;20086;-59
2021/12/27 07:33:18;;;;;;;85.15;14.48;;;13.80;99.90;;;;;;5069302;28;20056;-60
2021/12/27 07:35:44;;;;;;;74.00;13.65;;;13.80;99.90;;;;;;5067941;28;20047;-60
2021/12/27 07:38:09;;;;;;;80.25;14.48;;;13.60;99.90;;;;;;5067675;28;20407;-59
2021/12/27 07:40:35;;;;;;;79.47;14.07;;;13.60;99.90;;;;;;5070761;28;20103;-61
2021/12/27 07:43:02;;;;;;;82.72;14.13;;;13.60;99.90;;;;;;5069536;28;20028;-59
2021/12/27 07:45:28;;;;;;;82.93;15.82;;;13.60;99.90;;;;;;5067568;28;20495;-60
2021/12/27 07:47:53;;;;;;;108.60;16.08;;;13.70;99.90;;;;;;5067557;28;20035;-60
2021/12/27 07:50:19;;;;;;;94.03;16.58;;;13.60;99.90;;;;;;5067336;28;20033;-59
2021/12/27 07:52:45;;;;;;;88.18;14.98;;;13.60;99.90;;;;;;5070449;28;20106;-60
2021/12/27 07:55:11;;;;;;;92.95;16.45;;;13.50;99.90;;;;;;5063427;28;20510;-60
2021/12/27 07:57:37;;;;;;;92.97;14.88;;;13.50;99.90;;;;;;5067243;28;20216;-60
2021/12/27 08:00:06;;;;;;;91.75;15.52;;;13.50;99.90;;;;;;5068855;28;20024;-60
2021/12/27 08:02:32;;;;;;;87.72;16.52;;;13.50;99.90;;;;;;5062376;28;20049;-60
2021/12/27 08:04:58;;;;;;;77.63;14.32;;;13.50;99.90;;;;;;5052829;28;20112;-59
2021/12/27 08:07:24;;;;;;;86.63;15.70;;;13.50;99.90;;;;;;5061054;28;20532;-61
2021/12/27 08:09:50;;;;;;;102.03;15.82;;;13.50;99.90;;;;;;5062484;28;20025;-60
2021/12/27 08:12:16;;;;;;;92.65;15.60;;;13.50;99.90;;;;;;5051590;28;20031;-62
2021/12/27 08:14:42;;;;;;;89.93;14.52;;;13.60;99.90;;;;;;5062071;28;20112;-61
2021/12/27 08:17:07;;;;;;;95.45;16.25;;;13.60;99.90;;;;;;5057894;28;20479;-61
2021/12/27 08:19:33;;;;;;;87.65;15.15;;;13.70;99.90;;;;;;5070512;28;20032;-61
2021/12/27 08:21:59;;;;;;;88.43;14.65;;;13.70;99.90;;;;;;5067536;28;20534;-61
2021/12/27 08:24:25;;;;;;;86.20;15.25;;;13.70;99.90;;;;;;5066689;28;20083;-61
2021/12/27 08:26:51;;;;;;;82.47;15.43;;;13.70;99.90;;;;;;5067255;28;20060;-60
2021/12/27 08:29:17;;;;;;;91.43;15.05;;;13.80;99.90;;;;;;5067446;28;20032;-61
2021/12/27 08:31:43;;;;;;;88.32;15.82;;;13.70;99.90;;;;;;5069672;28;20078;-60
2021/12/27 08:34:09;;;;;;;74.43;14.00;;;13.70;99.90;;;;;;5068679;28;20041;-61
2021/12/27 08:36:34;;;;;;;98.63;17.05;;;13.70;99.90;;;;;;5068600;28;20509;-61
2021/12/27 08:39:00;;;;;;;107.93;31.48;;;13.70;99.90;;;;;;5067272;28;20093;-61
2021/12/27 08:41:28;;;;;;;80.95;14.98;;;13.70;99.90;;;;;;5069086;28;20146;-61
2021/12/27 08:43:56;;;;;;;98.68;19.67;;;13.80;99.90;;;;;;5068090;28;20107;-61
2021/12/27 08:46:22;;;;;;;92.63;16.33;;;13.80;99.90;;;;;;5070975;28;20017;-61
2021/12/27 08:48:48;;;;;;;77.15;14.73;;;13.90;99.90;;;;;;5068996;28;20039;-61
2021/12/27 08:51:14;;;;;;;84.82;15.77;;;13.90;99.90;;;;;;5068199;28;20112;-61
2021/12/27 08:53:40;;;;;;;86.07;15.30;;;14.00;99.90;;;;;;5067004;28;20032;-61
2021/12/27 08:56:05;;;;;;;88.40;19.05;;;14.10;99.90;;;;;;5067124;28;20025;-61
2021/12/27 08:58:31;;;;;;;90.63;19.98;;;14.10;99.90;;;;;;5070459;28;20017;-61
2021/12/27 09:00:57;;;;;;;77.47;15.40;;;14.00;99.90;;;;;;5068226;28;20498;-61
2021/12/27 09:03:23;;;;;;;88.25;15.95;;;14.10;99.90;;;;;;5067064;28;20040;-61
2021/12/27 09:05:48;;;;;;;85.43;14.60;;;14.20;99.90;;;;;;5067163;28;20045;-61
2021/12/27 09:08:14;;;;;;;80.75;14.07;;;14.30;99.90;;;;;;5067099;28;20013;-61
2021/12/27 09:10:40;;;;;;;80.28;14.82;;;14.40;99.90;;;;;;5069281;28;20479;-61
2021/12/27 09:13:06;;;;;;;74.40;14.73;;;14.70;99.90;;;;;;5070525;28;20483;-60
2021/12/27 09:15:32;;;;;;;96.47;16.75;;;14.50;99.90;;;;;;5068658;28;20048;-61
2021/12/27 09:17:58;;;;;;;78.57;14.90;;;14.50;99.90;;;;;;5066978;28;20028;-61
2021/12/27 09:20:26;;;;;;;84.28;14.80;;;14.40;99.90;;;;;;5065736;28;20535;-61
2021/12/27 09:22:52;;;;;;;84.88;16.17;;;14.40;99.90;;;;;;5068535;28;20171;-61
2021/12/27 09:25:18;;;;;;;79.85;25.73;;;14.90;99.90;;;;;;5069835;28;20074;-61
2021/12/27 09:27:43;;;;;;;70.97;14.20;;;15.30;99.90;;;;;;5066582;28;20058;-61
2021/12/27 09:30:10;;;;;;;77.07;15.68;;;15.60;99.90;;;;;;5067407;28;20466;-62
2021/12/27 09:32:36;;;;;;;78.20;14.10;;;15.80;99.90;;;;;;5066341;28;20527;-61
2021/12/27 09:35:02;;;;;;;80.68;15.70;;;15.80;99.90;;;;;;5066830;28;20104;-61
2021/12/27 09:37:28;;;;;;;71.15;14.45;;;16.30;99.90;;;;;;5071213;28;20020;-61
2021/12/27 09:39:53;;;;;;;70.82;14.70;;;16.00;99.90;;;;;;5066574;28;20522;-61
2021/12/27 09:42:25;;;;;;;75.30;15.07;;;16.00;99.90;;;;;;5066806;28;20121;-61
2021/12/27 09:44:53;;;;;;;70.25;13.00;;;16.30;99.90;;;;;;5067816;28;20403;-61
2021/12/27 09:47:19;;;;;;;72.53;14.40;;;17.20;99.90;;;;;;5070515;28;20036;-61
2021/12/27 09:49:46;;;;;;;71.70;14.02;;;16.90;99.90;;;;;;5071871;28;20037;-61
2021/12/27 09:52:13;;;;;;;73.07;14.48;;;17.00;99.90;;;;;;5074941;28;20524;-61
2021/12/27 09:54:38;;;;;;;71.70;14.07;;;16.20;99.90;;;;;;5070015;28;20032;-61
2021/12/27 09:57:05;;;;;;;76.10;14.80;;;16.40;99.90;;;;;;5070051;28;20028;-61
2021/12/27 09:59:31;;;;;;;83.07;20.13;;;16.90;99.90;;;;;;5070560;28;20036;-61
2021/12/27 10:01:56;;;;;;;73.45;14.50;;;17.40;99.90;;;;;;5070305;28;20033;-61
2021/12/27 10:04:22;;;;;;;60.72;13.00;;;17.50;99.90;;;;;;5073686;28;20036;-61
2021/12/27 10:06:48;;;;;;;58.33;12.18;;;17.90;99.90;;;;;;5070482;28;20024;-61
2021/12/27 10:09:14;;;;;;;66.55;16.05;;;17.90;99.90;;;;;;5069927;28;20028;-61
2021/12/27 10:11:43;;;;;;;58.85;11.43;;;18.30;99.90;;;;;;5069502;28;20403;-60
2021/12/27 10:14:14;;;;;;;63.25;14.02;;;18.40;99.90;;;;;;5070108;28;20075;-61
2021/12/27 10:16:42;;;;;;;60.90;12.13;;;17.80;99.90;;;;;;5072754;28;20029;-61
2021/12/27 10:19:11;;;;;;;55.40;12.90;;;17.50;99.90;;;;;;5071616;28;20052;-61
2021/12/27 10:21:41;;;;;;;56.08;11.88;;;18.00;99.90;;;;;;5069674;28;20035;-62
2021/12/27 10:24:09;;;;;;;51.63;10.52;;;17.80;99.90;;;;;;5069566;28;20036;-62
2021/12/27 10:26:37;;;;;;;59.78;11.85;;;17.30;99.90;;;;;;5069671;28;20068;-62
2021/12/27 10:29:23;;;;;;;56.30;11.73;;;17.00;99.90;;;;;;5071109;28;20032;-62
2021/12/27 10:32:06;;;;;;;60.75;11.27;;;17.20;99.90;;;;;;5070798;28;20094;-61
2021/12/27 10:34:33;;;;;;;55.75;11.43;;;17.70;99.90;;;;;;5062803;28;20044;-61
2021/12/27 10:37:25;;;;;;;60.53;12.45;;;17.70;99.90;;;;;;5070373;28;20023;-61
2021/12/27 10:40:06;;;;;;;138.93;56.50;;;17.20;99.90;;;;;;5067349;28;20984;-60
2021/12/27 10:42:44;;;;;;;97.10;33.22;;;17.00;99.90;;;;;;5070468;28;20459;-61
2021/12/27 10:45:16;;;;;;;70.43;18.92;;;17.10;99.90;;;;;;5069858;28;20036;-60
2021/12/27 10:47:53;;;;;;;50.50;11.70;;;16.90;99.90;;;;;;5071976;28;20025;-59
2021/12/27 10:50:27;;;;;;;54.92;11.35;;;16.60;99.90;;;;;;5068378;28;20111;-59
2021/12/27 10:52:57;;;;;;;54.28;11.57;;;16.30;99.90;;;;;;5068596;28;20029;-59
2021/12/27 10:55:38;;;;;;;60.08;12.93;;;16.30;99.90;;;;;;5061642;28;20032;-60
2021/12/27 10:58:23;;;;;;;97.93;42.70;;;16.10;99.90;;;;;;5063750;28;20502;-60
2021/12/27 11:00:56;;;;;;;73.18;25.63;;;16.00;99.90;;;;;;5054256;28;20163;-59
2021/12/27 11:03:36;;;;;;;74.60;29.27;;;16.10;99.90;;;;;;5054478;28;20036;-59
2021/12/27 11:06:05;;;;;;;105.78;53.38;;;16.00;99.90;;;;;;5053022;28;20051;-59
2021/12/27 11:08:32;;;;;;;109.03;64.70;;;16.20;99.90;;;;;;5060452;28;20031;-60
2021/12/27 11:10:58;;;;;;;64.85;20.10;;;16.20;99.90;;;;;;5058624;28;20021;-59
2021/12/27 11:13:26;;;;;;;50.15;14.82;;;16.30;99.90;;;;;;5061445;28;20025;-59
2021/12/27 11:15:52;;;;;;;99.68;49.85;;;16.30;99.90;;;;;;5067435;28;20025;-59
2021/12/27 11:18:18;;;;;;;57.83;14.60;;;16.30;99.90;;;;;;5070016;28;20814;-59
2021/12/27 11:21:08;;;;;;;56.92;15.98;;;16.50;99.90;;;;;;5070301;28;20033;-58
2021/12/27 11:23:35;;;;;;;50.03;12.90;;;16.80;99.90;;;;;;5071302;28;20036;-59
2021/12/27 11:26:07;;;;;;;52.08;11.90;;;17.00;99.90;;;;;;5068380;28;20495;-59
2021/12/27 11:28:38;;;;;;;45.97;11.75;;;17.10;99.90;;;;;;5067532;28;20029;-59
2021/12/27 11:31:25;;;;;;;47.88;13.60;;;17.50;99.90;;;;;;5067801;28;20108;-59
2021/12/27 11:33:59;;;;;;;52.03;15.23;;;18.20;99.90;;;;;;5067995;28;20169;-59
2021/12/27 11:36:34;;;;;;;49.20;12.27;;;18.20;99.90;;;;;;5068013;28;20063;-59
2021/12/27 11:39:18;;;;;;;41.63;11.05;;;18.60;99.90;;;;;;5067488;28;20471;-59
2021/12/27 11:41:43;;;;;;;50.00;12.52;;;19.10;99.90;;;;;;5065800;28;20035;-59
2021/12/27 11:44:17;;;;;;;36.60;8.57;;;18.60;99.90;;;;;;5067594;28;20048;-59
2021/12/27 11:46:49;;;;;;;65.43;29.75;;;17.90;99.90;;;;;;5068369;28;20390;-58
2021/12/27 11:49:16;;;;;;;39.63;12.20;;;17.90;99.90;;;;;;5067855;28;20032;-59
2021/12/27 11:51:43;;;;;;;34.35;12.68;;;17.70;99.90;;;;;;5069353;28;20046;-59
2021/12/27 11:54:30;;;;;;;36.22;8.55;;;17.90;99.90;;;;;;5069452;28;20041;-60
2021/12/27 11:56:57;;;;;;;30.25;6.90;;;17.50;99.90;;;;;;5067582;28;20032;-60
2021/12/27 11:59:26;;;;;;;30.27;6.40;;;17.30;99.90;;;;;;5067757;28;20032;-60
2021/12/27 12:02:00;;;;;;;33.58;7.28;;;18.00;99.90;;;;;;5069326;28;20040;-59
2021/12/27 12:04:42;;;;;;;35.30;6.90;;;18.10;99.90;;;;;;5067868;28;20036;-59
2021/12/27 12:07:09;;;;;;;30.15;7.22;;;18.30;99.90;;;;;;5066365;28;20029;-59
2021/12/27 12:09:50;;;;;;;29.95;6.50;;;18.10;99.90;;;;;;5067752;28;20048;-60
2021/12/27 12:12:15;;;;;;;36.40;7.07;;;17.90;99.90;;;;;;5069707;28;20033;-59
2021/12/27 12:14:42;;;;;;;32.35;6.63;;;17.90;99.90;;;;;;5068985;28;20043;-58
2021/12/27 12:17:15;;;;;;;29.40;6.70;;;18.30;99.90;;;;;;5067426;28;20360;-59
2021/12/27 12:19:47;;;;;;;24.23;5.63;;;18.30;99.90;;;;;;5069523;28;20127;-59
2021/12/27 12:22:32;;;;;;;32.03;6.47;;;17.80;99.90;;;;;;5069693;28;20052;-59
2021/12/27 12:25:13;;;;;;;28.48;6.10;;;17.60;99.90;;;;;;5070612;28;20070;-59
2021/12/27 12:28:00;;;;;;;27.08;6.25;;;17.40;99.90;;;;;;5067829;28;20028;-61
2021/12/27 12:30:32;;;;;;;97.97;51.50;;;17.40;99.90;;;;;;5067071;28;20032;-59
2021/12/27 12:33:01;;;;;;;90.13;51.08;;;17.40;99.90;;;;;;5066817;28;20139;-59
2021/12/27 12:35:39;;;;;;;41.88;15.63;;;17.60;99.90;;;;;;5067300;28;20056;-59
2021/12/27 12:38:14;;;;;;;33.63;13.38;;;17.40;99.90;;;;;;5053038;28;20174;-59
2021/12/27 12:40:41;;;;;;;53.92;22.05;;;17.30;99.90;;;;;;5069392;28;20514;-59